Time;durP1;ratioP1;P1;durP2;ratioP2;P2;SDS_P1;SDS_P2;PMS_P1;PMS_P2;Temp;Humidity;BMP_temperature;BMP_pressure;BME280_temperature;BME280_humidity;BME280_pressure;Samples;Min_cycle;Max_cycle;Signal;HPM_P1;HPM_P2
2021/12/07 00:00:58;;;;;;;24.17;8.65;;;;;;;10.66;56.73;100927.88;4155500;28;20727;-64
2021/12/07 00:03:01;;;;;;;23.25;8.90;;;;;;;10.64;56.85;100923.56;4155751;28;20056;-64
2021/12/07 00:05:04;;;;;;;24.13;8.68;;;;;;;10.55;56.66;100928.19;4155223;28;20054;-64
2021/12/07 00:07:07;;;;;;;24.52;8.55;;;;;;;10.46;56.63;100925.88;4155655;28;20124;-65
2021/12/07 00:09:13;;;;;;;23.25;7.88;;;;;;;10.59;57.04;100950.00;4155501;28;20326;-64
2021/12/07 00:11:15;;;;;;;21.52;7.72;;;;;;;10.65;56.80;100951.59;4155406;28;20049;-64
2021/12/07 00:13:18;;;;;;;;;;;;;;;10.63;56.68;100948.13;4156108;28;20050;-64
2021/12/07 00:15:23;;;;;;;23.42;8.23;;;;;;;10.60;56.75;100950.88;4155127;28;19921;-64
2021/12/07 00:17:26;;;;;;;22.83;7.70;;;;;;;10.49;56.84;100924.94;4139410;28;20050;-64
2021/12/07 00:19:28;;;;;;;;;;;;;;;10.59;56.81;100944.75;4147337;28;20041;-64
2021/12/07 00:21:31;;;;;;;21.23;6.60;;;;;;;10.55;57.04;100941.34;4155290;28;19937;-64
2021/12/07 00:23:34;;;;;;;22.08;6.90;;;;;;;10.57;57.18;100941.34;4155444;28;20052;-64
2021/12/07 00:25:37;;;;;;;19.55;6.70;;;;;;;10.55;57.13;100938.72;4155151;28;20267;-64
2021/12/07 00:27:40;;;;;;;20.40;7.00;;;;;;;10.46;56.91;100922.38;4155427;28;20049;-64
2021/12/07 00:29:42;;;;;;;;;;;;;;;10.55;57.17;100938.72;4156959;28;20075;-64
2021/12/07 00:31:54;;;;;;;18.25;6.07;;;;;;;10.55;56.91;100941.34;4160632;28;20087;-64
2021/12/07 00:34:12;;;;;;;21.27;6.75;;;;;;;10.45;56.92;100928.53;4161028;28;20226;-64
2021/12/07 00:36:14;;;;;;;18.85;6.07;;;;;;;10.53;57.06;100939.69;4160772;28;20109;-65
2021/12/07 00:38:19;;;;;;;16.63;5.80;;;;;;;10.53;57.14;100943.19;4161016;28;20105;-64
2021/12/07 00:40:23;;;;;;;18.58;6.20;;;;;;;10.50;56.96;100947.69;4160636;28;20245;-64
2021/12/07 00:42:26;;;;;;;18.38;6.10;;;;;;;10.51;57.08;100958.16;4160619;28;20335;-64
2021/12/07 00:44:28;;;;;;;17.50;5.43;;;;;;;10.44;57.02;100950.47;4160450;28;20124;-65
2021/12/07 00:46:33;;;;;;;15.73;5.18;;;;;;;10.51;56.73;100957.28;4160833;28;20108;-65
2021/12/07 00:48:36;;;;;;;15.50;5.40;;;;;;;10.50;56.89;100955.56;4160870;28;20060;-64
2021/12/07 00:50:41;;;;;;;15.80;5.28;;;;;;;10.50;56.85;100960.84;4160326;28;20042;-62
2021/12/07 00:52:44;;;;;;;15.52;5.30;;;;;;;10.42;57.11;100942.66;4160475;28;20049;-64
2021/12/07 00:54:46;;;;;;;14.32;4.50;;;;;;;10.49;57.20;100967.00;4160551;28;20337;-64
2021/12/07 00:56:48;;;;;;;;;;;;;;;10.47;56.91;100966.19;4159746;28;20117;-64
2021/12/07 00:58:51;;;;;;;15.45;5.28;;;;;;;10.38;57.04;100948.94;4160594;28;20316;-63
2021/12/07 01:01:04;;;;;;;13.73;4.90;;;;;;;10.47;56.82;100966.19;4160531;28;20057;-63
2021/12/07 01:03:07;;;;;;;15.30;4.60;;;;;;;10.37;57.25;100953.31;4160663;28;20049;-64
2021/12/07 01:05:17;;;;;;;14.13;4.85;;;;;;;10.46;57.20;100964.44;4160646;28;20056;-64
2021/12/07 01:07:48;;;;;;;12.52;4.32;;;;;;;10.45;56.94;100965.34;4160490;28;20056;-64
2021/12/07 01:24:39;;;;;;;13.68;4.32;;;;;;;10.41;57.12;100964.59;4160465;28;20109;-64
2021/12/07 01:26:11;;;;;;;11.82;3.65;;;;;;;10.34;57.00;100944.63;4160396;28;20106;-64
2021/12/07 01:28:24;;;;;;;11.90;3.45;;;;;;;10.21;56.95;100921.34;4160457;28;20216;-64
2021/12/07 01:30:48;;;;;;;11.68;3.50;;;;;;;10.38;57.30;100954.19;4160264;28;20050;-64
2021/12/07 01:59:50;;;;;;;8.13;2.78;;;;;;;10.30;56.96;100961.41;4157580;28;20329;-64
2021/12/07 02:01:53;;;;;;;9.38;2.50;;;;;;;10.21;57.11;100952.03;4157330;28;20422;-64
2021/12/07 02:03:55;;;;;;;8.60;2.50;;;;;;;10.16;57.01;100941.66;4157207;28;20104;-65
2021/12/07 02:05:58;;;;;;;9.73;2.92;;;;;;;10.25;57.32;100961.53;4157310;28;20046;-64
2021/12/07 02:08:00;;;;;;;8.48;2.55;;;;;;;10.28;57.12;100977.25;4156894;28;20113;-64
2021/12/07 02:10:08;;;;;;;;;;;;;;;10.27;57.01;100967.63;4157630;28;20101;-64
2021/12/07 02:12:12;;;;;;;8.70;2.08;;;;;;;10.26;57.17;100965.06;4157259;28;19917;-64
2021/12/07 02:14:18;;;;;;;6.43;2.13;;;;;;;10.15;57.34;100955.72;4157088;28;20398;-64
2021/12/07 02:16:21;;;;;;;9.05;2.40;;;;;;;10.16;57.18;100943.44;4140971;28;20066;-64
2021/12/07 02:18:24;;;;;;;7.90;2.30;;;;;;;10.17;57.01;100956.53;4148464;28;20290;-64
2021/12/07 02:20:30;;;;;;;8.20;2.53;;;;;;;10.24;56.81;100959.81;4157080;28;20167;-64
2021/12/07 02:22:32;;;;;;;8.48;2.20;;;;;;;10.12;57.14;100955.81;4157201;28;20381;-64
2021/12/07 02:24:34;;;;;;;7.60;1.95;;;;;;;10.09;57.25;100950.63;4157112;28;20144;-64
2021/12/07 02:26:36;;;;;;;;;;;;;;;10.23;57.03;100977.38;4157612;28;20066;-65
2021/12/07 02:28:40;;;;;;;7.45;1.85;;;;;;;10.16;57.08;100974.97;4156996;28;20215;-65
2021/12/07 02:30:45;;;;;;;7.10;2.10;;;;;;;10.19;57.15;100973.09;4157204;28;20060;-64
2021/12/07 02:32:50;;;;;;;7.30;1.98;;;;;;;10.22;57.34;100980.06;4157112;28;20396;-64
2021/12/07 02:34:57;;;;;;;5.82;1.92;;;;;;;10.09;57.20;100952.41;4156694;28;20069;-65
2021/12/07 02:36:59;;;;;;;7.18;2.10;;;;;;;10.20;57.31;100974.81;4156940;28;20324;-64
2021/12/07 02:39:05;;;;;;;10.98;2.53;;;;;;;10.17;57.18;100969.66;4156720;28;20056;-65
2021/12/07 02:41:07;;;;;;;6.63;2.10;;;;;;;10.14;57.09;100964.50;4157046;28;20330;-65
2021/12/07 02:43:09;;;;;;;;;;;;;;;10.19;56.90;100977.50;4157253;28;20056;-64
2021/12/07 02:45:11;;;;;;;8.20;2.10;;;;;;;10.18;57.23;100981.91;4156582;28;19932;-64
2021/12/07 02:47:14;;;;;;;7.78;1.95;;;;;;;10.10;57.05;100960.25;4156954;28;20050;-64
2021/12/07 02:49:19;;;;;;;5.97;1.52;;;;;;;10.18;57.01;100967.88;4156524;28;20096;-64
2021/12/07 02:51:21;;;;;;;6.45;1.67;;;;;;;10.03;57.14;100956.06;4156483;28;20046;-64
2021/12/07 02:53:26;;;;;;;8.40;2.10;;;;;;;10.12;56.82;100978.59;4156679;28;20115;-65
2021/12/07 02:55:31;;;;;;;7.47;1.55;;;;;;;10.07;56.98;100969.09;4156588;28;20075;-65
2021/12/07 02:57:34;;;;;;;7.53;1.92;;;;;;;10.05;57.15;100970.88;4156319;28;20108;-64
2021/12/07 02:59:53;;;;;;;8.57;2.13;;;;;;;10.07;57.02;100976.09;4156424;28;20430;-65
2021/12/07 03:02:02;;;;;;;5.78;1.50;;;;;;;10.12;57.12;100981.22;4156383;28;20125;-64
2021/12/07 03:04:10;;;;;;;5.60;1.63;;;;;;;10.14;57.17;100984.66;4156550;28;20144;-64
2021/12/07 03:27:23;;;;;;;5.00;1.27;;;;;;;10.07;56.87;101005.00;4156214;28;20091;-65
2021/12/07 03:29:25;;;;;;;5.85;1.25;;;;;;;10.08;57.23;101011.97;4156405;28;20237;-64
2021/12/07 03:31:29;;;;;;;5.15;1.30;;;;;;;10.07;56.95;101011.13;4156094;28;20101;-64
2021/12/07 03:33:32;;;;;;;4.13;1.00;;;;;;;10.01;57.05;101006.06;4155892;28;20046;-64
2021/12/07 03:35:35;;;;;;;6.50;1.38;;;;;;;10.00;57.16;101003.44;4156084;28;20331;-64
2021/12/07 03:37:37;;;;;;;8.07;1.50;;;;;;;10.04;57.18;101018.25;4155883;28;20060;-64
2021/12/07 03:39:40;;;;;;;5.15;1.40;;;;;;;10.06;56.96;101019.91;4156065;28;20068;-64
2021/12/07 03:41:42;;;;;;;5.32;1.48;;;;;;;9.94;57.33;100987.88;4155706;28;20056;-64
2021/12/07 03:43:45;;;;;;;3.88;1.33;;;;;;;9.93;57.00;100984.38;4155975;28;20077;-64
2021/12/07 03:45:47;;;;;;;6.97;1.40;;;;;;;9.98;57.18;100984.25;4155662;28;20104;-64
2021/12/07 03:47:50;;;;;;;5.32;1.35;;;;;;;10.05;57.20;101001.56;4155760;28;20149;-64
2021/12/07 03:49:52;;;;;;;4.97;1.13;;;;;;;10.05;57.17;101001.56;4155967;28;20050;-64
2021/12/07 03:51:54;;;;;;;5.43;1.48;;;;;;;10.05;57.21;101007.69;4155650;28;20449;-64
2021/12/07 03:53:56;;;;;;;5.25;1.08;;;;;;;10.05;57.31;101015.56;4155760;28;20056;-64
2021/12/07 03:55:59;;;;;;;5.70;1.58;;;;;;;10.05;57.12;101004.19;4155608;28;20046;-64
2021/12/07 03:58:06;;;;;;;5.00;1.23;;;;;;;9.97;57.02;100990.41;4155555;28;20272;-64
2021/12/07 04:00:13;;;;;;;5.53;1.40;;;;;;;10.01;56.97;100984.16;4155714;28;20069;-64
2021/12/07 04:02:16;;;;;;;6.05;1.50;;;;;;;10.01;57.09;100979.78;4155624;28;20068;-64
2021/12/07 04:04:19;;;;;;;6.03;1.33;;;;;;;10.03;57.22;100992.88;4155140;28;20064;-64
2021/12/07 04:06:21;;;;;;;4.50;1.27;;;;;;;9.95;56.94;100982.59;4170743;28;20424;-64
2021/12/07 04:08:25;;;;;;;4.78;1.40;;;;;;;10.03;57.08;100995.50;4155536;28;20289;-64
2021/12/07 04:10:27;;;;;;;6.78;1.35;;;;;;;9.93;56.86;100968.63;4155565;28;20180;-64
2021/12/07 04:12:29;;;;;;;;;;;;;;;10.01;56.91;100985.03;4154705;28;20046;-64
2021/12/07 04:14:31;;;;;;;5.13;1.50;;;;;;;9.88;57.08;100970.53;4155727;28;19944;-64
2021/12/07 04:16:34;;;;;;;6.28;1.73;;;;;;;9.93;57.20;100992.28;4155298;28;20746;-64
2021/12/07 04:18:36;;;;;;;4.85;1.48;;;;;;;9.91;57.21;100991.44;4155349;28;20050;-64
2021/12/07 04:20:39;;;;;;;5.57;1.52;;;;;;;10.00;57.17;101003.44;4155439;28;20322;-64
2021/12/07 04:22:42;;;;;;;6.38;1.33;;;;;;;9.88;57.33;100988.91;4155371;28;20067;-64
2021/12/07 04:24:44;;;;;;;6.50;1.50;;;;;;;9.96;56.82;101007.09;4155536;28;20237;-65
2021/12/07 04:26:46;;;;;;;5.88;1.08;;;;;;;9.98;57.03;101003.50;4155623;28;20050;-65
2021/12/07 04:28:48;;;;;;;6.60;1.33;;;;;;;9.92;56.93;100993.16;4154947;28;20357;-64
2021/12/07 04:30:51;;;;;;;4.65;1.20;;;;;;;9.85;57.06;100981.09;4155539;28;20050;-64
2021/12/07 04:32:54;;;;;;;7.07;1.58;;;;;;;9.94;57.25;100991.38;4155055;28;20049;-65
2021/12/07 04:34:56;;;;;;;6.00;1.15;;;;;;;9.98;57.12;100994.78;4155311;28;20088;-65
2021/12/07 04:36:58;;;;;;;5.35;1.30;;;;;;;9.85;56.98;100975.84;4155444;28;20117;-64
2021/12/07 04:39:00;;;;;;;5.82;1.38;;;;;;;9.96;57.20;100993.94;4155079;28;20054;-65
2021/12/07 04:41:02;;;;;;;5.20;1.08;;;;;;;9.95;57.24;100995.72;4155331;28;20053;-64
2021/12/07 04:43:05;;;;;;;6.28;1.23;;;;;;;9.95;57.24;100990.47;4154915;28;20046;-64
2021/12/07 04:45:12;;;;;;;5.97;1.23;;;;;;;9.94;57.03;100994.00;4155353;28;20095;-64
2021/12/07 04:47:25;;;;;;;4.65;1.38;;;;;;;9.89;57.05;100985.34;4155157;28;20046;-64
2021/12/07 04:58:38;;;;;;;4.70;1.45;;;;;;;9.90;57.29;101000.22;4154917;28;20494;-65
2021/12/07 05:00:40;;;;;;;5.35;1.10;;;;;;;9.79;56.95;100982.13;4155315;28;20104;-65
2021/12/07 05:02:45;;;;;;;3.55;1.20;;;;;;;9.79;57.02;100979.50;4155143;28;20046;-64
2021/12/07 05:04:48;;;;;;;6.63;1.40;;;;;;;9.79;57.28;100971.63;4155185;28;20233;-64
2021/12/07 05:06:55;;;;;;;5.40;1.17;;;;;;;9.79;56.90;100974.25;4155222;28;20108;-64
2021/12/07 05:09:19;;;;;;;6.13;1.40;;;;;;;9.89;57.29;100990.63;4154995;28;20117;-64
2021/12/07 05:11:47;;;;;;;5.05;1.10;;;;;;;9.82;57.26;100986.44;4155080;28;20105;-65
2021/12/07 05:39:36;;;;;;;6.00;1.45;;;;;;;9.83;56.91;101014.44;4157679;28;20109;-63
2021/12/07 05:41:38;;;;;;;;;;;;;;;9.81;57.10;101008.38;4158280;28;20355;-64
2021/12/07 05:43:41;;;;;;;7.53;1.30;;;;;;;9.69;57.27;100985.94;4157845;28;19921;-64
2021/12/07 05:45:43;;;;;;;3.50;0.95;;;;;;;9.69;56.88;100981.53;4157742;28;20056;-64
2021/12/07 05:47:45;;;;;;;;;;;;;;;9.81;57.07;101003.13;4158216;28;20052;-65
2021/12/07 05:49:48;;;;;;;7.07;1.50;;;;;;;9.73;57.16;100992.81;4157575;28;19984;-64
2021/12/07 05:51:50;;;;;;;5.68;1.10;;;;;;;9.59;57.21;100965.16;4157789;28;20054;-64
2021/12/07 05:53:52;;;;;;;5.38;1.45;;;;;;;9.79;57.01;100997.03;4157517;28;20274;-64
2021/12/07 05:55:54;;;;;;;5.30;1.30;;;;;;;9.79;57.22;100997.03;4157425;28;20379;-64
2021/12/07 05:57:57;;;;;;;5.00;1.00;;;;;;;9.54;57.28;100963.59;4157894;28;20049;-64
2021/12/07 05:59:59;;;;;;;4.88;1.23;;;;;;;9.68;57.20;101000.81;4157281;28;20053;-64
2021/12/07 06:02:01;;;;;;;5.57;1.48;;;;;;;9.79;56.95;101015.44;4157380;28;20291;-64
2021/12/07 06:04:04;;;;;;;6.28;1.40;;;;;;;9.78;57.10;101005.81;4157710;28;20129;-64
2021/12/07 06:06:06;;;;;;;5.68;1.17;;;;;;;9.73;57.08;100998.94;4157469;28;20045;-65
2021/12/07 06:08:08;;;;;;;7.68;1.83;;;;;;;9.69;57.37;100997.28;4157402;28;20101;-64
2021/12/07 06:10:10;;;;;;;5.10;1.17;;;;;;;9.72;57.15;101009.47;4157325;28;20045;-64
2021/12/07 06:12:12;;;;;;;4.93;1.40;;;;;;;9.64;57.11;100988.69;4157243;28;20050;-64
2021/12/07 06:14:18;;;;;;;7.95;1.27;;;;;;;9.75;57.24;101010.25;4157472;28;20117;-64
2021/12/07 06:16:20;;;;;;;5.82;1.17;;;;;;;9.72;57.23;100996.34;4156801;28;20069;-65
2021/12/07 06:18:24;;;;;;;6.78;1.13;;;;;;;9.66;56.99;100989.50;4157031;28;20045;-65
2021/12/07 06:20:27;;;;;;;4.88;1.10;;;;;;;9.70;56.96;100988.50;4157196;28;20106;-65
2021/12/07 06:22:45;;;;;;;7.63;1.40;;;;;;;9.71;57.07;100984.13;4156720;28;20054;-64
2021/12/07 06:24:46;;;;;;;;;;;;;;;9.73;57.24;100975.31;4157543;28;20049;-64
2021/12/07 06:26:49;;;;;;;4.50;1.23;;;;;;;9.72;57.35;100973.59;4157023;28;19928;-65
2021/12/07 06:28:51;;;;;;;7.90;1.42;;;;;;;9.73;57.15;100961.28;4156510;28;20114;-64
2021/12/07 06:30:53;;;;;;;7.07;1.60;;;;;;;9.73;57.31;100961.28;4157064;28;20110;-64
2021/12/07 06:32:56;;;;;;;4.47;1.17;;;;;;;9.57;57.30;100938.13;4156270;28;20045;-64
2021/12/07 06:34:58;;;;;;;5.85;1.40;;;;;;;9.56;57.00;100928.50;4140707;28;20333;-65
2021/12/07 06:37:01;;;;;;;5.88;1.40;;;;;;;9.69;57.00;100944.75;4148012;28;20065;-64
2021/12/07 06:39:05;;;;;;;5.70;1.77;;;;;;;9.69;57.10;100941.28;4157077;28;20108;-64
2021/12/07 06:41:07;;;;;;;6.07;1.65;;;;;;;9.61;56.87;100917.84;4157026;28;20100;-64
2021/12/07 06:43:10;;;;;;;8.15;1.60;;;;;;;9.64;57.30;100928.28;4156584;28;20052;-64
2021/12/07 06:45:12;;;;;;;4.70;1.10;;;;;;;9.64;57.29;100930.06;4156974;28;20129;-64
2021/12/07 06:47:14;;;;;;;4.53;1.58;;;;;;;9.64;57.24;100930.06;4156553;28;20046;-66
2021/12/07 06:49:18;;;;;;;6.95;1.40;;;;;;;9.69;56.99;100936.03;4156858;28;20045;-65
2021/12/07 06:51:20;;;;;;;5.72;1.02;;;;;;;9.68;57.31;100942.19;4156898;28;20046;-65
2021/12/07 06:53:22;;;;;;;7.80;2.00;;;;;;;9.57;57.08;100925.00;4156336;28;20045;-65
2021/12/07 06:55:24;;;;;;;6.75;1.70;;;;;;;9.67;57.35;100936.09;4156375;28;20113;-64
2021/12/07 06:57:27;;;;;;;4.43;1.42;;;;;;;9.67;57.45;100924.72;4156558;28;20109;-64
2021/12/07 06:59:29;;;;;;;5.95;1.58;;;;;;;9.69;57.29;100933.41;4156438;28;20101;-64
2021/12/07 07:01:32;;;;;;;7.40;1.65;;;;;;;9.68;57.37;100922.03;4156514;28;20050;-64
2021/12/07 07:03:34;;;;;;;5.32;1.30;;;;;;;9.64;57.22;100909.06;4156343;28;20046;-65
2021/12/07 07:05:37;;;;;;;8.02;1.90;;;;;;;9.57;57.30;100890.84;4156261;28;20133;-64
2021/12/07 07:07:41;;;;;;;5.85;1.42;;;;;;;9.65;57.07;100905.50;4156210;28;20052;-64
2021/12/07 07:09:43;;;;;;;6.85;1.60;;;;;;;9.64;57.08;100904.66;4156391;28;20397;-65
2021/12/07 07:11:46;;;;;;;5.53;1.40;;;;;;;9.62;57.24;100895.09;4156547;28;20117;-65
2021/12/07 07:13:49;;;;;;;6.47;1.70;;;;;;;9.65;57.25;100900.25;4156133;28;20338;-65
2021/12/07 07:15:51;;;;;;;5.90;1.77;;;;;;;9.66;57.14;100904.59;4156168;28;20065;-65
2021/12/07 07:17:53;;;;;;;6.38;1.77;;;;;;;9.57;57.05;100898.72;4156137;28;20046;-65
2021/12/07 07:19:55;;;;;;;5.85;1.50;;;;;;;9.66;57.25;100904.59;4156319;28;20052;-65
2021/12/07 07:22:01;;;;;;;6.78;1.80;;;;;;;9.36;57.16;100849.44;4156193;28;20076;-65
2021/12/07 07:24:03;;;;;;;6.25;1.40;;;;;;;9.58;57.36;100886.44;4155940;28;20124;-65
2021/12/07 07:26:06;;;;;;;7.43;1.42;;;;;;;9.65;57.02;100898.50;4156100;28;20046;-65
2021/12/07 07:28:08;;;;;;;5.72;1.60;;;;;;;9.62;57.26;100890.69;4155925;28;20105;-65
2021/12/07 07:30:14;;;;;;;6.47;1.63;;;;;;;9.64;57.44;100883.63;4156175;28;20122;-66
2021/12/07 07:32:16;;;;;;;8.13;1.55;;;;;;;9.65;57.03;100881.88;4156001;28;20050;-65
2021/12/07 07:34:19;;;;;;;6.78;1.50;;;;;;;9.58;56.96;100860.19;4155731;28;20104;-65
2021/12/07 07:36:21;;;;;;;6.53;1.70;;;;;;;9.55;57.21;100855.88;4155775;28;20105;-66
2021/12/07 07:38:24;;;;;;;6.53;1.70;;;;;;;9.49;57.15;100842.94;4155948;28;20338;-65
2021/12/07 07:40:26;;;;;;;5.63;1.70;;;;;;;9.63;56.97;100860.06;4155062;28;20065;-66
2021/12/07 07:42:28;;;;;;;6.10;1.70;;;;;;;9.63;57.27;100854.81;4156005;28;20341;-66
2021/12/07 07:44:30;;;;;;;6.72;1.83;;;;;;;9.59;57.00;100841.75;4155636;28;20341;-65
2021/12/07 07:46:32;;;;;;;;;;;;;;;9.61;57.02;100844.31;4156444;28;20168;-65
2021/12/07 07:48:35;;;;;;;5.15;1.90;;;;;;;9.58;57.39;100828.69;4155766;28;19988;-65
2021/12/07 07:50:37;;;;;;;5.47;2.08;;;;;;;9.47;57.29;100810.63;4155567;28;20069;-65
2021/12/07 07:52:40;;;;;;;;;;;;;;;9.59;57.13;100831.25;4156107;28;20053;-65
2021/12/07 07:54:42;;;;;;;7.80;2.15;;;;;;;9.59;57.12;100833.88;4155649;28;19921;-65
2021/12/07 07:56:44;;;;;;;;;;;;;;;9.58;57.07;100834.78;4156112;28;20349;-65
2021/12/07 07:58:46;;;;;;;7.88;2.17;;;;;;;9.54;57.25;100835.78;4155900;28;19984;-64
2021/12/07 08:00:48;;;;;;;;;;;;;;;9.58;57.22;100836.56;4155863;28;20058;-65
2021/12/07 08:02:50;;;;;;;8.23;2.20;;;;;;;9.58;57.19;100833.94;4155699;28;20032;-64
2021/12/07 08:04:53;;;;;;;6.20;2.50;;;;;;;9.57;57.45;100830.47;4155458;28;20105;-65
2021/12/07 08:06:55;;;;;;;6.72;2.28;;;;;;;9.39;57.50;100802.97;4155478;28;20402;-64
2021/12/07 08:08:57;;;;;;;6.43;2.55;;;;;;;9.50;57.28;100821.03;4155703;28;20112;-65
2021/12/07 08:11:01;;;;;;;7.43;2.38;;;;;;;9.55;57.32;100816.50;4155327;28;20105;-64
2021/12/07 08:13:06;;;;;;;5.65;2.33;;;;;;;9.55;57.09;100819.13;4155195;28;20064;-65
2021/12/07 08:15:09;;;;;;;7.90;2.20;;;;;;;9.57;57.43;100812.09;4155388;28;20065;-65
2021/12/07 08:17:11;;;;;;;6.38;2.08;;;;;;;9.56;57.01;100815.59;4155044;28;20054;-65
2021/12/07 08:19:13;;;;;;;;;;;;;;;9.57;57.09;100811.19;4156019;28;20176;-65
2021/12/07 08:21:17;;;;;;;6.95;2.63;;;;;;;9.47;57.21;100796.66;4154821;28;19988;-64
2021/12/07 08:23:19;;;;;;;9.60;2.95;;;;;;;9.56;57.46;100807.72;4155432;28;20113;-65
2021/12/07 08:25:22;;;;;;;;;;;;;;;9.56;57.13;100798.97;4155619;28;20061;-64
2021/12/07 08:27:25;;;;;;;6.80;2.53;;;;;;;9.53;57.33;100796.47;4144417;28;19976;-65
2021/12/07 08:29:30;;;;;;;7.40;2.85;;;;;;;9.35;57.19;100763.75;4170039;28;20053;-64
2021/12/07 08:31:33;;;;;;;8.00;3.20;;;;;;;9.47;57.15;100775.66;4155025;28;20149;-64
2021/12/07 08:33:35;;;;;;;;;;;;;;;9.54;57.12;100783.28;4155798;28;20242;-64
2021/12/07 08:35:39;;;;;;;11.00;3.30;;;;;;;9.54;57.51;100790.31;4155174;28;19941;-64
2021/12/07 08:37:44;;;;;;;9.45;3.28;;;;;;;9.54;57.03;100785.91;4155343;28;20045;-64
2021/12/07 08:39:46;;;;;;;10.00;3.08;;;;;;;9.53;57.13;100783.34;4155266;28;20050;-65
2021/12/07 08:41:48;;;;;;;9.45;3.40;;;;;;;9.54;57.07;100785.91;4155092;28;20046;-64
2021/12/07 08:43:51;;;;;;;8.48;3.45;;;;;;;9.54;57.28;100791.16;4155293;28;20053;-63
2021/12/07 08:45:56;;;;;;;10.73;3.58;;;;;;;9.49;57.07;100776.44;4155211;28;20356;-64
2021/12/07 08:47:59;;;;;;;10.70;3.90;;;;;;;9.51;57.45;100780.72;4155166;28;20045;-64
2021/12/07 08:50:05;;;;;;;7.70;3.53;;;;;;;9.52;57.03;100774.56;4155392;28;20110;-64
2021/12/07 08:52:07;;;;;;;9.95;3.20;;;;;;;9.50;57.36;100775.53;4157823;28;20144;-66
2021/12/07 08:54:25;;;;;;;8.57;3.85;;;;;;;9.53;57.40;100775.44;4158339;28;20105;-66
2021/12/07 09:01:10;;;;;;;10.52;4.60;;;;;;;9.51;57.89;100735.25;4158331;28;20049;-67
2021/12/07 09:03:13;;;;;;;10.38;4.78;;;;;;;9.58;58.19;100742.03;4158182;28;20046;-67
2021/12/07 09:05:17;;;;;;;12.07;5.25;;;;;;;9.57;57.92;100749.06;4158554;28;20056;-64
2021/12/07 09:07:22;;;;;;;14.98;6.00;;;;;;;9.60;58.19;100729.72;4158167;28;20314;-65
2021/12/07 09:09:24;;;;;;;12.23;5.82;;;;;;;9.54;58.17;100708.91;4156553;28;20052;-61
2021/12/07 09:11:26;;;;;;;13.63;6.28;;;;;;;9.64;58.10;100715.56;4146625;28;20440;-62
2021/12/07 09:13:28;;;;;;;;;;;;;;;9.63;58.06;100708.59;4154025;28;20111;-64
2021/12/07 09:15:31;;;;;;;18.35;8.23;;;;;;;9.61;58.08;100699.91;4157584;28;19917;-63
2021/12/07 09:17:35;;;;;;;18.30;9.30;;;;;;;9.58;58.11;100700.03;4153374;28;20105;-60
2021/12/07 09:19:38;;;;;;;16.48;8.68;;;;;;;9.46;58.22;100692.53;4154874;28;20115;-61
2021/12/07 09:21:40;;;;;;;;;;;;;;;9.51;58.30;100694.09;4153565;28;20050;-63
2021/12/07 09:23:42;;;;;;;15.70;9.10;;;;;;;9.33;57.75;100671.06;4155893;28;19939;-63
2021/12/07 09:25:44;;;;;;;17.83;8.80;;;;;;;9.35;58.13;100670.09;4156611;28;20080;-61
2021/12/07 09:27:46;;;;;;;15.23;8.45;;;;;;;9.40;57.98;100672.59;4152853;28;20053;-62
2021/12/07 09:29:48;;;;;;;;;;;;;;;9.40;58.39;100664.69;4157420;28;20112;-62
2021/12/07 09:31:51;;;;;;;17.52;7.93;;;;;;;9.39;58.17;100668.22;4156825;28;19921;-62
2021/12/07 09:33:54;;;;;;;17.55;8.48;;;;;;;9.29;58.04;100661.56;4156847;28;20432;-63
2021/12/07 09:35:57;;;;;;;13.20;7.65;;;;;;;9.28;58.12;100665.94;4156690;28;20095;-62
2021/12/07 09:37:59;;;;;;;15.05;7.72;;;;;;;9.30;58.59;100669.38;4157809;28;20050;-61
2021/12/07 09:40:05;;;;;;;13.25;7.00;;;;;;;9.27;58.43;100680.84;4157883;28;20141;-64
2021/12/07 09:42:07;;;;;;;12.55;7.18;;;;;;;9.25;58.15;100679.16;4158158;28;20045;-60
2021/12/07 09:44:10;;;;;;;15.57;8.05;;;;;;;9.21;58.18;100675.78;4157813;28;20084;-63
2021/12/07 09:46:13;;;;;;;15.20;8.18;;;;;;;9.21;58.40;100685.41;4157755;28;20042;-61
2021/12/07 09:48:16;;;;;;;14.70;8.48;;;;;;;9.11;58.69;100675.22;4157484;28;20048;-60
2021/12/07 09:50:21;;;;;;;17.00;7.72;;;;;;;9.07;58.62;100681.44;4157835;28;20038;-60
2021/12/07 09:52:25;;;;;;;12.43;6.93;;;;;;;8.98;59.10;100659.88;4157954;28;20373;-63
2021/12/07 09:54:27;;;;;;;16.25;7.20;;;;;;;9.03;59.13;100673.69;4157361;28;20049;-61
2021/12/07 09:56:30;;;;;;;16.10;7.30;;;;;;;9.04;59.13;100654.44;4157629;28;20070;-61
2021/12/07 09:58:33;;;;;;;13.60;6.47;;;;;;;9.08;58.96;100656.91;4157595;28;20113;-60
2021/12/07 10:00:37;;;;;;;14.20;6.72;;;;;;;9.11;59.02;100651.59;4157687;28;20101;-61
2021/12/07 10:02:40;;;;;;;15.23;6.40;;;;;;;9.09;59.18;100647.31;4156189;28;20050;-60
2021/12/07 10:04:46;;;;;;;14.80;6.30;;;;;;;9.24;59.41;100665.19;4156463;28;20354;-60
2021/12/07 10:06:48;;;;;;;;;;;;;;;9.26;58.88;100673.88;4154976;28;20045;-61
2021/12/07 10:08:50;;;;;;;9.93;5.22;;;;;;;9.21;58.98;100674.91;4157360;28;19986;-63
2021/12/07 10:10:56;;;;;;;10.10;4.88;;;;;;;9.15;59.07;100657.59;4157489;28;20109;-63
2021/12/07 10:12:59;;;;;;;11.30;5.07;;;;;;;9.08;59.08;100642.97;4157676;28;20049;-66
2021/12/07 10:15:06;;;;;;;11.35;4.75;;;;;;;9.30;59.03;100665.91;4154899;28;20301;-63
2021/12/07 10:17:09;;;;;;;11.23;4.80;;;;;;;9.16;59.08;100635.72;4151297;28;20114;-64
2021/12/07 10:19:15;;;;;;;9.88;4.47;;;;;;;9.25;58.67;100648.53;4146806;28;20052;-63
2021/12/07 10:21:27;;;;;;;9.13;4.80;;;;;;;9.24;59.24;100631.06;4157387;28;20042;-63
2021/12/07 10:23:39;;;;;;;9.73;4.78;;;;;;;9.13;58.77;100603.47;4156737;28;20111;-61
2021/12/07 10:25:46;;;;;;;10.13;4.43;;;;;;;9.16;59.01;100595.47;4156987;28;20113;-62
2021/12/07 10:27:49;;;;;;;8.35;4.25;;;;;;;9.24;59.76;100602.19;4157409;28;20123;-59
2021/12/07 10:29:51;;;;;;;8.50;5.10;;;;;;;9.30;59.38;100595.91;4151774;28;20132;-59
2021/12/07 10:32:01;;;;;;;10.32;4.63;;;;;;;9.19;59.59;100577.03;4151137;28;20056;-59
2021/12/07 10:34:11;;;;;;;8.93;4.18;;;;;;;9.19;59.42;100558.66;4156252;28;20334;-60
2021/12/07 10:36:22;;;;;;;11.93;5.00;;;;;;;9.26;59.64;100571.53;4153369;28;20049;-60
2021/12/07 10:38:28;;;;;;;9.23;5.00;;;;;;;9.28;59.57;100566.22;4156965;28;20046;-60
2021/12/07 10:40:32;;;;;;;10.55;5.00;;;;;;;9.18;60.36;100549.06;4155606;28;20464;-59
2021/12/07 10:42:37;;;;;;;12.10;5.30;;;;;;;9.30;60.13;100556.53;4156760;28;20330;-61
2021/12/07 10:44:40;;;;;;;10.13;4.78;;;;;;;9.35;60.00;100541.50;4155843;28;20042;-60
2021/12/07 10:46:53;;;;;;;11.23;4.35;;;;;;;9.40;60.01;100533.47;4156349;28;20062;-60
2021/12/07 10:49:07;;;;;;;;;;;;;;;9.42;59.72;100529.88;4157402;28;20263;-60
2021/12/07 10:51:11;;;;;;;12.35;4.90;;;;;;;9.06;59.87;100464.59;4155536;28;20229;-66
2021/12/07 10:53:17;;;;;;;10.70;5.65;;;;;;;9.45;59.87;100507.91;4155555;28;20073;-63
2021/12/07 10:55:21;;;;;;;;;;;;;;;9.44;59.70;100498.31;4155897;28;20231;-63
2021/12/07 10:57:52;;;;;;;9.25;5.10;;;;;;;9.36;59.95;100488.09;4146145;28;19917;-64
2021/12/07 11:00:04;;;;;;;11.60;5.38;;;;;;;9.43;59.55;100486.97;4156553;28;20365;-62
2021/12/07 11:02:17;;;;;;;11.23;5.50;;;;;;;9.41;60.13;100469.56;4153132;28;20050;-62
2021/12/07 11:04:30;;;;;;;12.30;5.97;;;;;;;9.42;59.86;100472.13;4156695;28;20295;-60
2021/12/07 11:06:32;;;;;;;13.43;5.70;;;;;;;9.39;60.10;100455.63;4156636;28;20054;-60
2021/12/07 11:08:35;;;;;;;13.15;5.75;;;;;;;9.42;60.01;100452.91;4156423;28;20088;-61
2021/12/07 11:10:40;;;;;;;12.05;5.78;;;;;;;9.37;60.27;100444.34;4153832;28;20107;-62
2021/12/07 11:12:52;;;;;;;18.63;6.65;;;;;;;9.39;60.44;100426.75;4155315;28;20372;-59
2021/12/07 11:14:58;;;;;;;12.18;6.43;;;;;;;9.31;60.59;100406.03;4156021;28;20245;-62
2021/12/07 11:17:00;;;;;;;14.30;6.55;;;;;;;9.30;60.72;100387.75;4156179;28;20062;-62
2021/12/07 11:19:21;;;;;;;15.00;6.35;;;;;;;9.33;60.46;100385.84;4156557;28;20049;-62
2021/12/07 11:21:23;;;;;;;13.23;6.03;;;;;;;9.42;60.38;100374.16;4156232;28;20052;-61
2021/12/07 11:23:30;;;;;;;11.38;5.75;;;;;;;9.47;60.67;100369.59;4156176;28;20096;-60
2021/12/07 11:29:39;;;;;;;15.25;6.05;;;;;;;9.52;60.35;100366.81;4156323;28;20117;-60
2021/12/07 11:30:44;;;;;;;16.30;7.05;;;;;;;9.50;60.34;100326.63;4156233;28;20156;-62